createdAt,value
2022-09-25T00:13:26.943Z,5.60
2022-09-25T00:15:55.799Z,5.50
2022-09-25T00:18:42.477Z,5.50
2022-09-25T00:21:14.575Z,5.40
2022-09-25T00:24:08.771Z,5.30
2022-09-25T00:26:38.108Z,5.30
2022-09-25T00:29:05.495Z,5.40
2022-09-25T00:36:52.039Z,5.50
2022-09-25T00:39:18.513Z,5.40
2022-09-25T00:42:05.383Z,5.40
2022-09-25T00:44:57.022Z,5.30
2022-09-25T00:47:51.930Z,5.20
2022-09-25T00:50:37.444Z,5.20
2022-09-25T00:53:14.932Z,5.20
2022-09-25T00:55:44.156Z,5.10
2022-09-25T00:58:16.492Z,5.10
2022-09-25T01:05:51.201Z,5.20
2022-09-25T01:08:22.308Z,5.10
2022-09-25T01:10:49.139Z,5.10
2022-09-25T01:13:16.334Z,5.00
2022-09-25T01:16:09.064Z,4.90
2022-09-25T01:18:44.074Z,4.80
2022-09-25T01:21:29.876Z,4.80
2022-09-25T01:37:32.113Z,4.70
2022-09-25T01:39:58.438Z,4.90
2022-09-25T01:42:29.485Z,4.90
2022-09-25T01:45:09.667Z,4.80
2022-09-25T01:47:49.465Z,4.80
2022-09-25T01:50:40.095Z,4.70
2022-09-25T01:53:11.604Z,4.70
2022-09-25T01:55:44.235Z,4.60
2022-09-25T02:19:52.072Z,4.60
2022-09-25T02:22:35.232Z,4.50
2022-09-25T02:25:40.275Z,4.50
2022-09-25T02:28:06.778Z,4.50
2022-09-25T02:30:33.223Z,4.50
2022-09-25T02:32:59.457Z,4.50
2022-09-25T02:35:25.914Z,4.40
2022-09-25T02:37:55.589Z,4.40
2022-09-25T02:40:40.842Z,4.40
2022-09-25T03:01:49.317Z,4.30
2022-09-25T03:04:18.533Z,4.30
2022-09-25T03:06:46.251Z,4.20
2022-09-25T03:09:14.793Z,4.30
2022-09-25T03:11:42.880Z,4.20
2022-09-25T03:14:09.599Z,4.20
2022-09-25T03:16:36.366Z,4.20
2022-09-25T03:19:03.198Z,4.20
2022-09-25T03:21:29.442Z,4.20
2022-09-25T03:39:50.677Z,4.30
2022-09-25T03:42:19.364Z,4.20
2022-09-25T03:44:45.694Z,4.20
2022-09-25T03:47:13.328Z,4.20
2022-09-25T03:49:39.712Z,4.20
2022-09-25T03:52:06.050Z,4.10
2022-09-25T03:54:32.255Z,4.10
2022-09-25T03:56:58.597Z,4.00
2022-09-25T03:59:24.808Z,4.00
2022-09-25T04:17:25.298Z,4.00
2022-09-25T04:19:52.274Z,4.00
2022-09-25T04:22:23.975Z,3.90
2022-09-25T04:25:02.450Z,4.00
2022-09-25T04:27:28.692Z,4.00
2022-09-25T04:29:54.950Z,4.00
2022-09-25T04:32:39.799Z,4.00
2022-09-25T04:35:06.455Z,4.10
2022-09-25T04:54:01.380Z,4.20
2022-09-25T04:56:27.816Z,4.50
2022-09-25T04:58:54.000Z,4.60
2022-09-25T05:01:20.897Z,4.60
2022-09-25T05:03:52.655Z,4.60
2022-09-25T05:06:19.564Z,4.70
2022-09-25T05:08:49.088Z,4.70
2022-09-25T05:11:15.778Z,4.70
2022-09-25T05:13:45.983Z,4.80
2022-09-25T05:31:48.083Z,4.90
2022-09-25T05:34:14.945Z,5.70
2022-09-25T05:36:41.582Z,5.90
2022-09-25T05:39:17.748Z,6.00
2022-09-25T05:41:44.136Z,6.20
2022-09-25T05:44:10.878Z,6.40
2022-09-25T05:46:37.341Z,6.60
2022-09-25T05:49:04.353Z,6.70
2022-09-25T06:04:42.522Z,7.10
2022-09-25T06:07:31.980Z,7.80
2022-09-25T06:10:10.797Z,7.80
2022-09-25T06:12:37.316Z,7.80
2022-09-25T06:15:04.248Z,7.80
2022-09-25T06:17:30.435Z,7.90
2022-09-25T06:19:56.816Z,8.00
2022-09-25T06:22:23.006Z,8.20
2022-09-25T06:24:49.242Z,8.30
2022-09-25T06:46:53.815Z,9.80
2022-09-25T06:49:21.221Z,10.00
2022-09-25T06:51:47.733Z,10.20
2022-09-25T06:54:14.039Z,10.40
2022-09-25T06:56:40.502Z,10.60
2022-09-25T06:59:08.534Z,10.70
2022-09-25T07:01:39.703Z,10.80
2022-09-25T07:04:15.007Z,11.00
2022-09-25T07:06:41.213Z,11.10
2022-09-25T07:09:07.727Z,11.20
2022-09-25T07:11:34.458Z,11.30
2022-09-25T07:32:17.419Z,11.80
2022-09-25T07:34:43.787Z,12.60
2022-09-25T07:37:10.239Z,12.80
2022-09-25T07:39:46.218Z,13.10
2022-09-25T07:42:12.819Z,13.20
2022-09-25T07:44:40.014Z,13.50
2022-09-25T07:47:08.378Z,13.70
2022-09-25T07:49:35.223Z,13.80
2022-09-25T08:12:49.100Z,13.80
2022-09-25T08:15:15.707Z,13.80
2022-09-25T08:17:42.541Z,13.60
2022-09-25T08:20:09.671Z,13.60
2022-09-25T08:22:36.304Z,13.60
2022-09-25T08:25:04.303Z,13.60
2022-09-25T08:27:40.283Z,13.40
2022-09-25T08:30:08.812Z,13.30
2022-09-25T08:48:40.943Z,13.50
2022-09-25T08:51:08.702Z,14.50
2022-09-25T08:54:21.196Z,14.40
2022-09-25T08:56:55.256Z,14.40
2022-09-25T08:59:47.709Z,14.30
2022-09-25T09:02:18.328Z,14.40
2022-09-25T09:04:57.160Z,14.40
2022-09-25T09:36:43.641Z,16.70
2022-09-25T09:39:35.481Z,16.70
2022-09-25T09:46:18.176Z,16.70
2022-09-25T09:49:03.969Z,17.00
2022-09-25T09:51:36.782Z,17.30
2022-09-25T09:54:21.671Z,17.50
2022-09-25T10:03:09.726Z,17.70
2022-09-25T10:05:47.878Z,18.10
2022-09-25T10:08:16.424Z,18.50
2022-09-25T10:10:55.044Z,18.60
2022-09-25T10:13:35.495Z,18.70
2022-09-25T10:16:15.251Z,18.60
2022-09-25T10:19:23.041Z,18.60
2022-09-25T10:21:59.973Z,18.60
2022-09-25T10:38:38.848Z,18.40
2022-09-25T10:41:12.034Z,18.70
2022-09-25T10:44:18.154Z,18.90
2022-09-25T10:47:09.094Z,19.30
2022-09-25T10:50:06.677Z,19.20
2022-09-25T10:53:01.314Z,19.20
2022-09-25T10:55:37.355Z,19.20
2022-09-25T12:23:59.194Z,20.50
2022-09-25T12:26:45.259Z,21.00
2022-09-25T12:29:21.618Z,20.70
2022-09-25T12:32:41.015Z,20.60
2022-09-25T12:35:35.322Z,20.70
2022-09-25T12:38:12.203Z,20.80
2022-09-25T12:40:51.503Z,20.90
2022-09-25T14:44:14.024Z,17.60
2022-09-25T14:46:41.375Z,17.60
2022-09-25T14:49:27.965Z,17.60
2022-09-25T14:52:35.631Z,17.40
2022-09-25T14:55:03.628Z,17.30
2022-09-25T14:57:36.431Z,17.30
2022-09-25T15:00:07.302Z,17.30
2022-09-25T15:02:39.151Z,17.20
2022-09-25T15:20:54.854Z,17.10
2022-09-25T15:23:21.815Z,16.90
2022-09-25T15:25:51.794Z,16.80
2022-09-25T15:28:31.434Z,16.80
2022-09-25T15:31:01.034Z,16.60
2022-09-25T15:33:34.492Z,16.50
2022-09-25T15:36:07.905Z,16.50
2022-09-25T15:38:36.480Z,16.40
2022-09-25T15:41:07.038Z,16.30
2022-09-25T16:48:21.646Z,13.70
2022-09-25T16:50:48.418Z,13.70
2022-09-25T16:53:14.835Z,13.70
2022-09-25T16:55:47.708Z,13.70
2022-09-25T16:58:14.379Z,13.70
2022-09-25T17:00:40.703Z,13.70
2022-09-25T17:03:14.922Z,13.60
2022-09-25T17:18:56.677Z,13.50
2022-09-25T17:22:32.313Z,13.60
2022-09-25T17:25:02.128Z,13.60
2022-09-25T17:27:28.666Z,13.60
2022-09-25T17:29:55.081Z,13.70
2022-09-25T17:32:21.897Z,13.70
2022-09-25T17:34:49.815Z,13.70
2022-09-25T17:37:16.107Z,13.70
2022-09-25T17:39:42.529Z,13.70
2022-09-25T18:05:47.968Z,13.20
2022-09-25T18:08:14.658Z,13.10
2022-09-25T18:10:41.509Z,13.00
2022-09-25T18:13:15.220Z,12.80
2022-09-25T18:15:49.474Z,12.60
2022-09-25T18:18:16.163Z,12.50
2022-09-25T18:21:04.561Z,12.50
2022-09-25T18:23:34.661Z,12.40
2022-09-25T18:31:22.584Z,12.40
2022-09-25T18:33:57.298Z,12.30
2022-09-25T18:36:30.492Z,12.30
2022-09-25T18:38:56.937Z,12.40
2022-09-25T18:41:23.335Z,12.30
2022-09-25T18:43:49.593Z,12.30
2022-09-25T18:46:16.478Z,12.30
2022-09-25T18:48:47.165Z,12.30
2022-09-25T19:08:55.184Z,12.30
2022-09-25T19:11:32.274Z,12.80
2022-09-25T19:14:04.034Z,12.80
2022-09-25T19:16:37.849Z,12.80
2022-09-25T19:19:04.701Z,12.90
2022-09-25T19:21:32.219Z,12.80
2022-09-25T19:23:58.734Z,12.80
2022-09-25T19:26:25.180Z,12.80
2022-09-25T19:28:56.484Z,12.80
2022-09-25T19:31:25.646Z,12.70
2022-09-25T19:49:19.641Z,12.60
2022-09-25T19:51:46.079Z,12.40
2022-09-25T19:54:14.059Z,12.30
2022-09-25T19:57:31.258Z,12.20
2022-09-25T19:59:59.731Z,12.00
2022-09-25T20:02:26.110Z,11.90
2022-09-25T20:04:52.473Z,11.70
2022-09-25T20:07:18.820Z,11.60
2022-09-25T20:25:51.333Z,11.40
2022-09-25T20:28:58.011Z,11.10
2022-09-25T20:31:26.018Z,11.00
2022-09-25T20:33:53.428Z,10.90
2022-09-25T20:36:20.816Z,10.90
2022-09-25T20:38:52.042Z,10.90
2022-09-25T20:41:19.617Z,10.80
2022-09-25T20:43:53.582Z,10.70
2022-09-25T20:46:20.742Z,10.70
2022-09-25T20:48:50.354Z,10.60
2022-09-25T21:07:00.949Z,10.40
2022-09-25T21:09:28.290Z,10.10
2022-09-25T21:11:55.287Z,10.00
2022-09-25T21:14:28.554Z,10.00
2022-09-25T21:16:58.274Z,9.90
2022-09-25T21:19:25.496Z,9.80
2022-09-25T21:21:51.819Z,9.70
2022-09-25T21:24:19.802Z,9.70
2022-09-25T21:39:56.758Z,9.50
2022-09-25T21:42:47.090Z,9.50
2022-09-25T21:45:13.488Z,9.40
2022-09-25T21:47:39.855Z,9.40
2022-09-25T21:50:06.359Z,9.40
2022-09-25T21:52:32.576Z,9.40
2022-09-25T21:54:59.006Z,9.30
2022-09-25T21:57:25.165Z,9.30
2022-09-25T21:59:55.024Z,9.30
2022-09-25T22:07:27.747Z,9.10
2022-09-25T22:09:55.843Z,9.00
2022-09-25T22:12:22.905Z,9.00
2022-09-25T22:14:50.812Z,9.00
2022-09-25T22:17:27.483Z,8.90
2022-09-25T22:19:54.327Z,8.90
2022-09-25T22:22:20.723Z,8.80
2022-09-25T22:38:11.058Z,8.70
2022-09-25T22:40:38.619Z,8.50
2022-09-25T22:43:06.172Z,8.50
2022-09-25T22:45:33.110Z,8.50
2022-09-25T22:48:18.915Z,8.60
2022-09-25T22:50:56.625Z,8.50
2022-09-25T22:53:23.946Z,8.50
2022-09-25T22:55:50.855Z,8.50
2022-09-25T22:58:18.669Z,8.40
2022-09-25T23:15:10.266Z,8.40
2022-09-25T23:17:38.627Z,8.20
2022-09-25T23:20:05.489Z,8.10
2022-09-25T23:22:31.724Z,8.00
2022-09-25T23:24:58.133Z,7.90
2022-09-25T23:27:24.335Z,7.80
2022-09-25T23:29:50.558Z,7.80
2022-09-25T23:32:19.627Z,7.80
2022-09-25T23:52:32.868Z,7.60
2022-09-25T23:55:01.205Z,7.70
2022-09-25T23:57:27.376Z,7.70
2022-09-25T23:59:53.543Z,7.60
